5CL4 weather

Natividad Medical Center Heliport
Salinas, California, United States

Public forecast

Using degrees Fahrenheit for public forecast. Weather courtesy of forecast.io.

Closest aviation weather report (METAR) to Natividad Medical Center Heliport

Closest report is Salinas Municipal Airport, 3.0 nm (5.6 km) SE. Retrieved 2019/10/22 16:53 UTC (32 minutes ago):

KSNS 221653Z 14011KT 10SM CLR 19/07 A3019 RMK AO2 SLP230 T01890067

Closest aviation forecast (TAF) to Natividad Medical Center Heliport

Closest forecast is Salinas Municipal Airport, 3.0 nm (5.6 km) SE. Retrieved 2019/10/22 12:33 UTC (5 hours ago):

TAF KSNS 221131Z 2212/2312 11003KT P6SM SKC FM221500 VRB03KT P6SM SKC FM221900 29010KT P6SM SKC FM230400 VRB03KT P6SM SKC